Time,TemperatureF,DewpointF,PressureIn,WindDirection,WindDirectionDegrees,WindSpeedMPH,WindSpeedGustMPH,Humidity,HourlyPrecipIn,Conditions,Clouds,dailyrainin,SoftwareType,DateUTC
2013-02-08 00:01:00,70.7,65.0,29.98,South,188,0.0,0.0,82,0.00,,,0.00,weatherlink.com 1.10,2013-02-08 05:01:00,
2013-02-08 00:15:00,70.5,65.0,29.96,South,175,0.0,12.0,83,0.00,,,0.00,weatherlink.com 1.10,2013-02-08 05:15:00,
2013-02-08 00:30:00,70.7,65.0,29.96,South,188,0.0,5.0,83,0.00,,,0.00,weatherlink.com 1.10,2013-02-08 05:30:00,
2013-02-08 00:46:00,70.5,65.0,29.95,South,181,4.0,4.0,83,0.00,,,0.00,weatherlink.com 1.10,2013-02-08 05:46:00,
2013-02-08 01:03:00,70.2,65.0,29.93,SSE,166,3.0,8.0,83,0.00,,,0.00,weatherlink.com 1.10,2013-02-08 06:03:00,
2013-02-08 01:16:00,70.2,65.0,29.95,South,188,0.0,9.0,84,0.00,,,0.00,weatherlink.com 1.10,2013-02-08 06:16:00,
2013-02-08 01:31:00,70.3,65.0,29.97,South,189,0.0,0.0,84,0.00,,,0.00,weatherlink.com 1.10,2013-02-08 06:31:00,
2013-02-08 01:46:00,70.3,65.0,29.96,South,189,0.0,0.0,84,0.00,,,0.00,weatherlink.com 1.10,2013-02-08 06:46:00,
2013-02-08 02:01:00,70.5,66.0,29.95,South,190,0.0,0.0,85,0.00,,,0.00,weatherlink.com 1.10,2013-02-08 07:01:00,
2013-02-08 02:16:00,70.5,66.0,29.94,South,191,0.0,5.0,85,0.00,,,0.00,weatherlink.com 1.10,2013-02-08 07:16:00,
2013-02-08 02:31:00,70.2,66.0,29.93,South,189,0.0,7.0,85,0.00,,,0.00,weatherlink.com 1.10,2013-02-08 07:31:00,
2013-02-08 02:46:00,70.0,66.0,29.93,South,187,0.0,5.0,86,0.00,,,0.00,weatherlink.com 1.10,2013-02-08 07:46:00,
2013-02-08 03:01:00,70.2,66.0,29.93,SSW,198,0.0,7.0,87,0.00,,,0.00,weatherlink.com 1.10,2013-02-08 08:01:00,
2013-02-08 03:16:00,70.2,66.0,29.93,SSW,196,0.0,6.0,87,0.00,,,0.00,weatherlink.com 1.10,2013-02-08 08:16:00,
2013-02-08 03:31:00,70.2,67.0,29.95,SSW,198,0.0,4.0,88,0.00,,,0.00,weatherlink.com 1.10,2013-02-08 08:31:00,
2013-02-08 03:46:00,70.0,66.0,29.94,SSW,198,0.0,0.0,88,0.00,,,0.00,weatherlink.com 1.10,2013-02-08 08:46:00,
2013-02-08 04:01:00,70.0,66.0,29.94,SSW,198,0.0,7.0,88,0.00,,,0.00,weatherlink.com 1.10,2013-02-08 09:01:00,
2013-02-08 04:16:00,70.2,67.0,29.95,SSW,200,0.0,5.0,89,0.00,,,0.00,weatherlink.com 1.10,2013-02-08 09:16:00,
2013-02-08 04:31:00,70.2,67.0,29.93,SSW,203,0.0,9.0,89,0.00,,,0.00,weatherlink.com 1.10,2013-02-08 09:31:00,
2013-02-08 04:47:00,70.0,67.0,29.94,SSW,199,0.0,7.0,90,0.00,,,0.00,weatherlink.com 1.10,2013-02-08 09:47:00,
2013-02-08 05:01:00,70.0,67.0,29.95,SSW,200,0.0,1.0,90,0.00,,,0.00,weatherlink.com 1.10,2013-02-08 10:01:00,
2013-02-08 05:16:00,70.2,67.0,29.94,SSW,194,0.0,7.0,90,0.00,,,0.00,weatherlink.com 1.10,2013-02-08 10:16:00,
2013-02-08 05:31:00,70.0,67.0,29.93,South,179,3.0,6.0,91,0.00,,,0.00,weatherlink.com 1.10,2013-02-08 10:31:00,
2013-02-08 05:46:00,70.0,67.0,29.95,SW,218,0.0,7.0,91,0.00,,,0.00,weatherlink.com 1.10,2013-02-08 10:46:00,
2013-02-08 06:01:00,70.2,68.0,29.95,SW,214,0.0,7.0,91,0.00,,,0.00,weatherlink.com 1.10,2013-02-08 11:01:00,
2013-02-08 06:16:00,70.2,68.0,29.96,SSW,210,6.0,8.0,91,0.00,,,0.00,weatherlink.com 1.10,2013-02-08 11:16:00,
2013-02-08 06:31:00,70.5,68.0,29.97,SSW,209,4.0,6.0,91,0.00,,,0.00,weatherlink.com 1.10,2013-02-08 11:31:00,
2013-02-08 06:46:00,70.7,68.0,29.98,SW,223,0.0,7.0,92,0.00,,,0.00,weatherlink.com 1.10,2013-02-08 11:46:00,
2013-02-08 07:01:00,70.7,68.0,29.98,SW,223,5.0,8.0,92,0.00,,,0.00,weatherlink.com 1.10,2013-02-08 12:01:00,
2013-02-08 07:16:00,70.7,68.0,29.98,SW,221,5.0,7.0,92,0.00,,,0.00,weatherlink.com 1.10,2013-02-08 12:16:00,
2013-02-08 07:31:00,71.0,69.0,29.98,SSW,206,5.0,9.0,92,0.00,,,0.00,weatherlink.com 1.10,2013-02-08 12:31:00,
2013-02-08 07:46:00,71.0,69.0,29.99,SSW,203,7.0,10.0,92,0.00,,,0.00,weatherlink.com 1.10,2013-02-08 12:46:00,
2013-02-08 08:01:00,71.7,69.0,30.00,SSW,205,0.0,8.0,92,0.00,,,0.00,weatherlink.com 1.10,2013-02-08 13:01:00,
2013-02-08 08:16:00,72.7,70.0,30.00,SSW,206,0.0,10.0,92,0.00,,,0.00,weatherlink.com 1.10,2013-02-08 13:16:00,
2013-02-08 08:31:00,73.6,71.0,30.00,SW,224,7.0,11.0,91,0.00,,,0.00,weatherlink.com 1.10,2013-02-08 13:31:00,
2013-02-08 08:46:00,73.8,70.0,30.00,WSW,246,11.0,12.0,88,0.00,,,0.00,weatherlink.com 1.10,2013-02-08 13:46:00,
2013-02-08 09:01:00,74.5,70.0,30.01,SW,227,3.0,12.0,85,0.00,,,0.00,weatherlink.com 1.10,2013-02-08 14:01:00,
2013-02-08 09:16:00,75.7,69.0,30.01,SW,217,10.0,16.0,79,0.00,,,0.00,weatherlink.com 1.10,2013-02-08 14:16:00,
2013-02-08 09:31:00,76.0,68.0,30.02,SW,233,6.0,13.0,76,0.00,,,0.00,weatherlink.com 1.10,2013-02-08 14:31:00,
2013-02-08 09:46:00,77.3,68.0,30.02,SW,231,10.0,13.0,73,0.00,,,0.00,weatherlink.com 1.10,2013-02-08 14:46:00,
2013-02-08 10:01:00,77.6,68.0,30.02,WSW,241,5.0,14.0,72,0.00,,,0.00,weatherlink.com 1.10,2013-02-08 15:01:00,
2013-02-08 10:16:00,78.4,68.0,30.02,SW,231,1.0,15.0,71,0.00,,,0.00,weatherlink.com 1.10,2013-02-08 15:16:00,
2013-02-08 10:31:00,79.1,68.0,30.02,WSW,252,7.0,15.0,69,0.00,,,0.00,weatherlink.com 1.10,2013-02-08 15:31:00,
2013-02-08 10:47:00,79.7,68.0,30.02,WSW,240,4.0,14.0,68,0.00,,,0.00,weatherlink.com 1.10,2013-02-08 15:47:00,
2013-02-08 11:01:00,79.1,68.0,30.02,West,277,8.0,11.0,69,0.00,,,0.00,weatherlink.com 1.10,2013-02-08 16:01:00,
2013-02-08 11:16:00,79.7,69.0,30.02,West,270,2.0,11.0,69,0.00,,,0.00,weatherlink.com 1.10,2013-02-08 16:16:00,
2013-02-08 11:31:00,80.0,69.0,30.02,WSW,257,6.0,14.0,68,0.00,,,0.00,weatherlink.com 1.10,2013-02-08 16:31:00,
2013-02-08 11:46:00,80.0,69.0,30.01,WSW,251,7.0,11.0,68,0.00,,,0.00,weatherlink.com 1.10,2013-02-08 16:46:00,
2013-02-08 12:01:00,80.2,69.0,30.01,WSW,248,4.0,10.0,68,0.00,,,0.00,weatherlink.com 1.10,2013-02-08 17:01:00,
2013-02-08 12:16:00,80.8,69.0,30.01,WSW,237,15.0,15.0,67,0.00,,,0.00,weatherlink.com 1.10,2013-02-08 17:16:00,
2013-02-08 12:31:00,81.5,69.0,30.00,SW,230,4.0,10.0,65,0.00,,,0.00,weatherlink.com 1.10,2013-02-08 17:31:00,
2013-02-08 12:47:00,81.7,69.0,30.00,WSW,258,5.0,10.0,65,0.00,,,0.00,weatherlink.com 1.10,2013-02-08 17:47:00,
2013-02-08 13:02:00,81.5,68.0,29.99,WNW,286,5.0,13.0,64,0.00,,,0.00,weatherlink.com 1.10,2013-02-08 18:02:00,
2013-02-08 13:17:00,82.3,68.0,29.98,West,280,6.0,14.0,62,0.00,,,0.00,weatherlink.com 1.10,2013-02-08 18:17:00,
2013-02-08 13:32:00,82.3,67.0,29.98,WNW,283,0.0,10.0,61,0.00,,,0.00,weatherlink.com 1.10,2013-02-08 18:32:00,
2013-02-08 13:47:00,82.1,68.0,29.97,WSW,248,0.0,9.0,62,0.00,,,0.00,weatherlink.com 1.10,2013-02-08 18:47:00,
2013-02-08 14:02:00,82.3,67.0,29.96,WNW,288,0.0,10.0,60,0.00,,,0.00,weatherlink.com 1.10,2013-02-08 19:02:00,
2013-02-08 14:17:00,80.8,68.0,29.97,West,263,0.0,8.0,65,0.00,,,0.00,weatherlink.com 1.10,2013-02-08 19:17:00,
2013-02-08 14:32:00,80.4,68.0,29.96,NW,304,0.0,11.0,65,0.00,,,0.00,weatherlink.com 1.10,2013-02-08 19:32:00,
2013-02-08 14:47:00,79.5,68.0,29.96,WNW,294,0.0,9.0,68,0.00,,,0.00,weatherlink.com 1.10,2013-02-08 19:47:00,
2013-02-08 15:02:00,79.8,68.0,29.96,West,275,0.0,6.0,68,0.00,,,0.00,weatherlink.com 1.10,2013-02-08 20:02:00,
2013-02-08 15:17:00,80.2,68.0,29.95,West,279,0.0,5.0,66,0.00,,,0.00,weatherlink.com 1.10,2013-02-08 20:17:00,
2013-02-08 15:32:00,80.6,68.0,29.95,West,276,0.0,5.0,65,0.00,,,0.00,weatherlink.com 1.10,2013-02-08 20:32:00,
2013-02-08 15:47:00,81.1,68.0,29.95,SW,233,0.0,8.0,65,0.00,,,0.00,weatherlink.com 1.10,2013-02-08 20:47:00,
2013-02-08 16:02:00,81.5,68.0,29.95,SW,229,0.0,1.0,64,0.00,,,0.00,weatherlink.com 1.10,2013-02-08 21:02:00,
2013-02-08 16:17:00,81.5,69.0,29.95,SW,231,4.0,6.0,66,0.00,,,0.00,weatherlink.com 1.10,2013-02-08 21:17:00,
2013-02-08 16:32:00,81.7,68.0,29.95,WSW,241,0.0,1.0,63,0.00,,,0.00,weatherlink.com 1.10,2013-02-08 21:32:00,
2013-02-08 16:47:00,81.7,68.0,29.95,SW,230,0.0,1.0,64,0.00,,,0.00,weatherlink.com 1.10,2013-02-08 21:47:00,
2013-02-08 17:02:00,80.2,70.0,29.95,SE,128,6.0,13.0,70,0.00,,,0.00,weatherlink.com 1.10,2013-02-08 22:02:00,
2013-02-08 17:17:00,78.7,70.0,29.96,SE,133,6.0,14.0,74,0.00,,,0.00,weatherlink.com 1.10,2013-02-08 22:17:00,
2013-02-08 17:32:00,78.0,70.0,29.96,ESE,108,1.0,10.0,76,0.00,,,0.00,weatherlink.com 1.10,2013-02-08 22:32:00,
2013-02-08 17:47:00,77.1,70.0,29.98,East,95,0.0,3.0,79,0.00,,,0.00,weatherlink.com 1.10,2013-02-08 22:47:00,
2013-02-08 18:02:00,76.7,71.0,29.97,SE,143,0.0,7.0,81,0.00,,,0.00,weatherlink.com 1.10,2013-02-08 23:02:00,
2013-02-08 18:17:00,76.6,70.0,29.97,ESE,119,6.0,8.0,81,0.00,,,0.00,weatherlink.com 1.10,2013-02-08 23:17:00,
2013-02-08 18:32:00,76.4,71.0,29.98,SE,139,0.0,4.0,82,0.00,,,0.00,weatherlink.com 1.10,2013-02-08 23:32:00,
2013-02-08 18:47:00,75.9,70.0,29.98,SE,135,0.0,5.0,82,0.00,,,0.00,weatherlink.com 1.10,2013-02-08 23:47:00,
2013-02-08 19:02:00,75.5,70.0,29.98,SE,135,0.0,0.0,82,0.00,,,0.00,weatherlink.com 1.10,2013-02-09 00:02:00,
2013-02-08 19:17:00,75.2,69.0,29.98,SE,138,0.0,1.0,82,0.00,,,0.00,weatherlink.com 1.10,2013-02-09 00:17:00,
2013-02-08 19:32:00,75.2,69.0,29.99,SE,138,0.0,0.0,82,0.00,,,0.00,weatherlink.com 1.10,2013-02-09 00:32:00,
2013-02-08 19:47:00,75.2,69.0,29.99,SE,138,0.0,0.0,82,0.00,,,0.00,weatherlink.com 1.10,2013-02-09 00:47:00,
2013-02-08 20:02:00,75.2,70.0,30.00,SE,137,3.0,4.0,83,0.00,,,0.00,weatherlink.com 1.10,2013-02-09 01:02:00,
2013-02-08 20:17:00,75.2,70.0,30.00,SE,137,0.0,5.0,83,0.00,,,0.00,weatherlink.com 1.10,2013-02-09 01:17:00,
2013-02-08 20:32:00,75.2,70.0,30.01,SE,137,0.0,0.0,83,0.00,,,0.00,weatherlink.com 1.10,2013-02-09 01:32:00,
2013-02-08 20:47:00,75.2,70.0,30.01,SE,137,0.0,0.0,83,0.00,,,0.00,weatherlink.com 1.10,2013-02-09 01:47:00,
2013-02-08 21:02:00,75.2,70.0,30.01,SE,137,0.0,3.0,83,0.00,,,0.00,weatherlink.com 1.10,2013-02-09 02:02:00,
2013-02-08 21:17:00,75.0,70.0,30.01,SE,137,0.0,0.0,83,0.00,,,0.00,weatherlink.com 1.10,2013-02-09 02:17:00,
2013-02-08 21:33:00,74.8,70.0,30.02,SE,137,0.0,1.0,84,0.00,,,0.00,weatherlink.com 1.10,2013-02-09 02:33:00,
2013-02-08 21:47:00,74.5,69.0,30.02,SE,137,0.0,0.0,84,0.00,,,0.00,weatherlink.com 1.10,2013-02-09 02:47:00,
2013-02-08 22:02:00,74.1,69.0,30.02,SE,137,0.0,0.0,84,0.00,,,0.00,weatherlink.com 1.10,2013-02-09 03:02:00,
2013-02-08 22:17:00,73.8,69.0,30.02,SE,137,0.0,3.0,85,0.00,,,0.00,weatherlink.com 1.10,2013-02-09 03:17:00,
2013-02-08 22:32:00,73.4,69.0,30.02,SE,137,0.0,0.0,85,0.00,,,0.00,weatherlink.com 1.10,2013-02-09 03:32:00,
2013-02-08 22:47:00,73.2,69.0,30.02,SE,138,0.0,1.0,86,0.00,,,0.00,weatherlink.com 1.10,2013-02-09 03:47:00,
2013-02-08 23:02:00,72.7,69.0,30.03,SE,138,0.0,0.0,87,0.00,,,0.00,weatherlink.com 1.10,2013-02-09 04:02:00,
2013-02-08 23:17:00,72.2,68.0,30.03,SE,142,2.0,4.0,87,0.00,,,0.00,weatherlink.com 1.10,2013-02-09 04:17:00,
2013-02-08 23:32:00,72.0,68.0,30.03,SE,143,0.0,0.0,88,0.00,,,0.00,weatherlink.com 1.10,2013-02-09 04:32:00,
2013-02-08 23:47:00,71.7,68.0,30.04,SSE,152,0.0,1.0,88,0.00,,,0.00,weatherlink.com 1.10,2013-02-09 04:47:00,